Time;durP1;ratioP1;P1;durP2;ratioP2;P2;SDS_P1;SDS_P2;PMS_P1;PMS_P2;Temp;Humidity;BMP_temperature;BMP_pressure;BME280_temperature;BME280_humidity;BME280_pressure;Samples;Min_cycle;Max_cycle;Signal;HPM_P1;HPM_P2
2023/03/26 00:01:48;;;;;;;22.92;3.42;;;7.70;99.90;;;;;;7277491;32;20141;-54
2023/03/26 00:06:11;;;;;;;24.67;3.37;;;7.80;99.90;;;;;;7276556;32;20513;-54
2023/03/26 00:10:14;;;;;;;33.10;3.83;;;7.80;99.90;;;;;;7272646;32;20550;-54
2023/03/26 00:14:16;;;;;;;23.58;3.72;;;7.70;99.90;;;;;;7275315;32;20222;-54
2023/03/26 00:18:20;;;;;;;26.45;3.80;;;7.80;99.90;;;;;;7278346;32;20773;-54
2023/03/26 00:22:22;;;;;;;25.50;3.35;;;7.70;99.90;;;;;;7273131;32;20309;-54
2023/03/26 00:26:25;;;;;;;23.70;4.20;;;7.80;99.90;;;;;;7273815;32;20483;-57
2023/03/26 00:30:27;;;;;;;29.25;3.95;;;7.80;99.90;;;;;;7277421;32;20502;-54
2023/03/26 00:34:28;;;;;;;24.37;3.03;;;7.80;99.90;;;;;;7272935;32;20111;-54
2023/03/26 00:38:32;;;;;;;28.15;3.50;;;7.80;99.90;;;;;;7271908;32;20168;-54
2023/03/26 00:42:34;;;;;;;29.55;4.20;;;7.70;99.90;;;;;;7272943;32;20285;-54
2023/03/26 00:46:36;;;;;;;26.42;3.28;;;7.70;99.90;;;;;;7274268;32;20116;-54
2023/03/26 00:50:38;;;;;;;20.52;2.95;;;7.70;99.90;;;;;;7282089;32;20325;-54
2023/03/26 00:54:40;;;;;;;26.08;3.37;;;7.60;99.90;;;;;;7276357;32;20152;-54
2023/03/26 00:58:42;;;;;;;30.10;4.25;;;7.70;99.90;;;;;;7274662;32;20111;-54
2023/03/26 01:02:44;;;;;;;25.92;3.65;;;7.60;99.90;;;;;;7282399;32;20889;-54
2023/03/26 01:06:46;;;;;;;26.75;3.47;;;7.60;99.90;;;;;;7276552;32;20155;-54
2023/03/26 01:10:49;;;;;;;28.05;3.60;;;7.50;99.90;;;;;;7286007;32;20148;-54
2023/03/26 01:14:55;;;;;;;27.55;3.95;;;7.40;99.90;;;;;;7273256;32;20127;-54
2023/03/26 01:18:57;;;;;;;24.42;4.45;;;7.50;99.90;;;;;;7272975;32;20144;-54
2023/03/26 01:23:04;;;;;;;25.20;3.50;;;7.60;99.90;;;;;;7256583;32;20116;-54
2023/03/26 01:27:33;;;;;;;29.75;4.03;;;7.60;99.90;;;;;;7272940;32;20185;-54
2023/03/26 01:31:50;;;;;;;22.73;4.10;;;7.70;99.90;;;;;;7264315;32;20567;-54
2023/03/26 01:36:09;;;;;;;20.45;3.90;;;7.70;99.90;;;;;;7281733;32;20264;-54
2023/03/26 01:40:26;;;;;;;32.15;5.18;;;7.70;99.90;;;;;;7282366;32;20177;-54
2023/03/26 01:44:51;;;;;;;25.98;4.10;;;7.60;99.90;;;;;;7270972;32;20139;-54
2023/03/26 01:48:54;;;;;;;27.25;3.78;;;7.60;99.90;;;;;;7272264;32;20201;-54
2023/03/26 01:52:56;;;;;;;23.87;3.28;;;7.60;99.90;;;;;;7273204;32;20574;-54
2023/03/26 01:57:30;;;;;;;18.65;3.53;;;7.50;99.90;;;;;;7272844;32;20139;-54
2023/03/26 02:01:44;;;;;;;25.88;3.87;;;7.60;99.90;;;;;;7279585;32;20221;-54
2023/03/26 02:06:00;;;;;;;22.87;3.78;;;7.50;99.90;;;;;;7283727;32;20220;-55
2023/03/26 02:10:27;;;;;;;34.22;4.20;;;7.40;99.90;;;;;;7282964;32;20397;-54
2023/03/26 02:14:30;;;;;;;25.60;3.40;;;7.50;99.90;;;;;;7272556;32;20128;-55
2023/03/26 02:18:40;;;;;;;24.45;3.72;;;7.40;99.90;;;;;;7288081;32;20099;-54
2023/03/26 02:22:44;;;;;;;21.40;3.62;;;7.50;99.90;;;;;;7297280;32;20107;-54
2023/03/26 02:26:46;;;;;;;23.38;3.03;;;7.50;99.90;;;;;;7291341;32;20420;-56
2023/03/26 02:30:48;;;;;;;28.30;3.53;;;7.50;99.90;;;;;;7289409;32;20136;-54
2023/03/26 02:34:50;;;;;;;22.87;3.60;;;7.40;99.90;;;;;;7285787;32;20143;-54
2023/03/26 02:38:53;;;;;;;25.23;3.33;;;7.40;99.90;;;;;;7292514;32;20208;-55
2023/03/26 02:42:54;;;;;;;23.95;4.57;;;7.50;99.90;;;;;;7290090;32;20118;-55
2023/03/26 02:46:56;;;;;;;23.48;3.50;;;7.50;99.90;;;;;;7284842;32;20255;-55
2023/03/26 02:50:58;;;;;;;19.90;3.33;;;7.40;99.90;;;;;;7285303;32;20165;-55
2023/03/26 02:55:00;;;;;;;20.75;3.12;;;7.20;99.90;;;;;;7289627;32;20100;-55
2023/03/26 02:59:01;;;;;;;15.55;2.78;;;7.10;99.90;;;;;;7283123;32;20688;-55
2023/03/26 03:03:03;;;;;;;12.40;2.67;;;6.90;99.90;;;;;;7286517;32;20112;-56
2023/03/26 03:07:06;;;;;;;18.80;3.58;;;6.80;99.90;;;;;;7290884;32;20138;-54
2023/03/26 03:11:11;;;;;;;23.95;3.22;;;6.70;99.90;;;;;;7280908;32;20129;-55
2023/03/26 03:15:15;;;;;;;;;;;6.50;99.90;;;;;;7282502;32;20734;-55
2023/03/26 03:19:16;;;;;;;20.05;2.55;;;6.40;99.90;;;;;;7280327;32;20003;-55
2023/03/26 03:23:19;;;;;;;15.55;2.80;;;6.20;99.90;;;;;;7282035;32;20220;-54
2023/03/26 03:27:22;;;;;;;15.82;2.85;;;6.20;99.90;;;;;;7293965;32;20562;-54
2023/03/26 03:31:25;;;;;;;19.27;3.00;;;6.10;99.90;;;;;;7279288;32;20226;-55
2023/03/26 03:35:28;;;;;;;12.68;2.85;;;6.00;99.90;;;;;;7286723;32;20492;-55
2023/03/26 03:39:30;;;;;;;15.20;2.30;;;6.00;99.90;;;;;;7277889;32;20171;-54
2023/03/26 03:43:32;;;;;;;22.10;3.22;;;6.00;99.90;;;;;;7284520;32;20141;-55
2023/03/26 03:47:34;;;;;;;11.38;2.42;;;5.90;99.90;;;;;;7291082;32;20469;-55
2023/03/26 03:51:35;;;;;;;18.87;2.70;;;5.90;99.90;;;;;;7288228;32;20246;-54
2023/03/26 03:55:40;;;;;;;17.15;2.67;;;5.90;99.90;;;;;;7280584;32;20601;-54
2023/03/26 03:59:43;;;;;;;18.37;3.00;;;5.90;99.90;;;;;;7287788;32;20650;-54
2023/03/26 04:03:49;;;;;;;15.18;2.70;;;5.90;99.90;;;;;;7285381;32;20714;-54
2023/03/26 04:07:51;;;;;;;14.35;2.65;;;6.00;99.90;;;;;;7287765;32;20151;-54
2023/03/26 04:11:52;;;;;;;21.40;2.40;;;6.00;99.90;;;;;;7276046;32;20487;-55
2023/03/26 04:15:54;;;;;;;16.48;2.85;;;6.10;99.90;;;;;;7285821;32;20108;-55
2023/03/26 04:19:56;;;;;;;14.45;3.22;;;6.10;99.90;;;;;;7292141;32;20145;-54
2023/03/26 04:24:00;;;;;;;24.23;3.53;;;6.10;99.90;;;;;;7287088;32;20182;-54
2023/03/26 04:28:05;;;;;;;19.62;2.58;;;6.20;99.90;;;;;;7288307;32;20309;-54
2023/03/26 04:32:21;;;;;;;15.25;3.33;;;6.20;99.90;;;;;;7286260;32;20109;-54
2023/03/26 04:36:27;;;;;;;13.77;3.37;;;6.20;99.90;;;;;;7281099;32;20224;-54
2023/03/26 04:40:29;;;;;;;10.23;2.80;;;6.30;99.90;;;;;;7284430;32;20137;-54
2023/03/26 04:44:33;;;;;;;14.30;2.53;;;6.30;99.90;;;;;;7279801;32;20115;-54
2023/03/26 04:48:37;;;;;;;13.90;2.42;;;6.40;99.90;;;;;;7283507;32;20127;-55
2023/03/26 04:52:40;;;;;;;12.88;2.50;;;6.50;99.90;;;;;;7283495;32;20158;-54
2023/03/26 04:56:58;;;;;;;19.12;2.70;;;6.50;99.90;;;;;;7282335;32;20229;-55
2023/03/26 05:01:00;;;;;;;17.42;2.92;;;6.60;99.90;;;;;;7285874;32;20513;-54
2023/03/26 05:05:11;;;;;;;17.60;3.60;;;6.60;99.90;;;;;;7282721;32;20178;-54
2023/03/26 05:09:14;;;;;;;15.63;4.15;;;6.60;99.90;;;;;;7271944;32;20307;-54
2023/03/26 05:13:16;;;;;;;16.92;2.95;;;6.60;99.90;;;;;;7273632;32;20129;-54
2023/03/26 05:17:20;;;;;;;13.18;2.80;;;6.70;99.90;;;;;;7279400;32;20156;-55
2023/03/26 05:21:21;;;;;;;17.60;3.28;;;6.70;99.90;;;;;;7275611;32;20108;-54
2023/03/26 05:25:23;;;;;;;18.50;2.92;;;6.70;99.90;;;;;;7275317;32;20680;-54
2023/03/26 05:29:25;;;;;;;22.48;3.05;;;6.70;99.90;;;;;;7270892;32;20164;-54
2023/03/26 05:33:27;;;;;;;16.85;3.00;;;6.80;99.90;;;;;;7282584;32;20108;-55
2023/03/26 05:37:30;;;;;;;17.67;2.75;;;6.90;99.90;;;;;;7288405;32;20434;-54
2023/03/26 05:41:32;;;;;;;12.52;2.35;;;6.90;99.90;;;;;;7278472;32;20116;-54
2023/03/26 05:45:34;;;;;;;17.90;3.25;;;6.90;99.90;;;;;;7281874;32;20230;-55
2023/03/26 05:49:35;;;;;;;16.52;2.70;;;6.90;99.90;;;;;;7271516;32;20793;-54
2023/03/26 05:53:37;;;;;;;19.55;3.25;;;7.00;99.90;;;;;;7284216;32;20111;-53
2023/03/26 05:57:39;;;;;;;18.25;2.70;;;7.00;99.90;;;;;;7281944;32;20309;-54
2023/03/26 06:01:43;;;;;;;18.92;3.17;;;7.00;99.90;;;;;;7279156;32;20116;-53
2023/03/26 06:05:45;;;;;;;10.98;2.35;;;7.00;99.90;;;;;;7280534;32;20457;-54
2023/03/26 06:09:47;;;;;;;12.20;2.30;;;7.00;99.90;;;;;;7274360;32;20436;-54
2023/03/26 06:13:49;;;;;;;19.98;2.80;;;7.10;99.90;;;;;;7275824;32;20191;-55
2023/03/26 06:17:50;;;;;;;17.75;3.33;;;7.00;99.90;;;;;;7282390;32;20130;-55
2023/03/26 06:21:52;;;;;;;19.33;3.90;;;7.10;99.90;;;;;;7280972;32;20108;-55
2023/03/26 06:25:54;;;;;;;20.67;3.08;;;7.00;99.90;;;;;;7274625;32;20202;-54
2023/03/26 06:29:56;;;;;;;20.15;3.03;;;7.10;99.90;;;;;;7281924;32;20544;-54
2023/03/26 06:33:58;;;;;;;21.27;3.25;;;7.20;99.90;;;;;;7277696;32;20199;-54
2023/03/26 06:38:00;;;;;;;20.70;3.05;;;7.20;99.90;;;;;;7280173;32;20130;-55
2023/03/26 06:42:02;;;;;;;20.27;3.20;;;7.20;99.90;;;;;;7266123;32;20156;-55
2023/03/26 06:46:04;;;;;;;19.73;3.60;;;7.20;99.90;;;;;;7260190;32;20191;-56
2023/03/26 06:50:06;;;;;;;26.17;4.25;;;7.30;99.90;;;;;;7284288;32;20112;-55
2023/03/26 06:54:08;;;;;;;12.60;3.35;;;7.30;99.90;;;;;;7285335;32;20497;-55
2023/03/26 06:58:10;;;;;;;22.42;3.72;;;7.40;99.90;;;;;;7273738;32;20213;-55
2023/03/26 07:02:12;;;;;;;14.93;3.17;;;7.50;99.90;;;;;;7276593;32;20667;-55
2023/03/26 07:06:14;;;;;;;18.05;3.20;;;7.40;99.90;;;;;;7275073;32;20639;-55
2023/03/26 07:10:15;;;;;;;17.37;3.20;;;7.50;99.90;;;;;;7276137;32;20116;-56
2023/03/26 07:14:17;;;;;;;16.58;3.65;;;7.40;99.90;;;;;;7271051;32;20223;-56
2023/03/26 07:18:19;;;;;;;14.48;3.80;;;7.60;99.90;;;;;;7273030;32;20140;-55
2023/03/26 07:22:23;;;;;;;14.75;2.75;;;7.50;99.90;;;;;;7271503;32;20131;-56
2023/03/26 07:26:30;;;;;;;21.08;3.70;;;7.50;99.90;;;;;;7268670;32;20147;-56
2023/03/26 07:30:58;;;;;;;16.08;3.53;;;7.60;99.90;;;;;;7271483;32;20261;-56
2023/03/26 07:35:24;;;;;;;14.02;3.42;;;7.60;99.90;;;;;;7275631;32;20144;-55
2023/03/26 07:40:04;;;;;;;18.58;3.30;;;7.70;99.90;;;;;;7278430;32;20108;-56
2023/03/26 07:44:30;;;;;;;13.35;3.40;;;7.70;99.90;;;;;;7270882;32;20128;-55
2023/03/26 07:48:43;;;;;;;12.05;3.12;;;7.90;99.90;;;;;;7281428;32;20265;-56
2023/03/26 07:52:45;;;;;;;14.13;3.17;;;7.90;99.90;;;;;;7274907;32;20112;-56
2023/03/26 07:56:58;;;;;;;16.23;2.85;;;8.10;99.90;;;;;;7270607;32;20585;-55
2023/03/26 08:01:18;;;;;;;13.00;3.60;;;8.20;99.90;;;;;;7276526;32;20566;-56
2023/03/26 08:05:27;;;;;;;14.15;3.25;;;8.20;99.90;;;;;;7274352;32;20175;-55
2023/03/26 08:09:37;;;;;;;8.30;2.15;;;8.20;99.90;;;;;;7275397;32;20172;-56
2023/03/26 08:13:56;;;;;;;9.13;2.20;;;8.30;99.90;;;;;;7274594;32;20651;-57
2023/03/26 08:18:20;;;;;;;14.50;2.33;;;8.40;99.90;;;;;;7279387;32;20592;-59
2023/03/26 08:22:32;;;;;;;9.25;1.85;;;8.40;99.90;;;;;;7276042;32;20115;-56
2023/03/26 08:26:50;;;;;;;10.73;1.98;;;8.50;99.90;;;;;;7273081;32;20268;-55
2023/03/26 08:30:53;;;;;;;10.48;2.47;;;8.40;99.90;;;;;;7273265;32;20219;-56
2023/03/26 08:34:56;;;;;;;9.15;2.30;;;8.40;99.90;;;;;;7279872;32;20679;-55
2023/03/26 08:38:58;;;;;;;9.52;1.98;;;8.50;99.90;;;;;;7270546;32;20645;-56
2023/03/26 08:43:18;;;;;;;14.50;2.62;;;8.50;99.90;;;;;;7277617;32;20115;-55
2023/03/26 08:47:38;;;;;;;8.82;1.98;;;8.50;99.90;;;;;;7277031;32;20133;-56
2023/03/26 08:52:05;;;;;;;11.77;2.22;;;8.50;99.90;;;;;;7275207;32;20286;-56
2023/03/26 08:56:28;;;;;;;11.27;2.75;;;8.50;99.90;;;;;;7274315;32;20128;-56
2023/03/26 09:00:54;;;;;;;12.35;2.42;;;8.40;99.90;;;;;;7277806;32;20206;-56
2023/03/26 09:05:27;;;;;;;9.80;2.30;;;8.50;99.90;;;;;;7275967;32;20107;-56
2023/03/26 09:09:56;;;;;;;8.50;1.95;;;8.50;99.90;;;;;;7282690;32;20161;-56
2023/03/26 09:14:36;;;;;;;7.60;2.22;;;8.60;99.90;;;;;;7281240;32;20766;-56
2023/03/26 09:18:45;;;;;;;6.70;1.50;;;8.60;99.90;;;;;;7282755;32;20116;-56
2023/03/26 09:23:09;;;;;;;7.90;1.75;;;8.60;99.90;;;;;;7282443;32;20183;-56
2023/03/26 09:27:34;;;;;;;5.68;1.50;;;8.60;99.90;;;;;;7281833;32;20101;-55
2023/03/26 09:31:58;;;;;;;8.23;1.60;;;8.50;99.90;;;;;;7280250;32;20219;-56
2023/03/26 09:36:20;;;;;;;9.05;1.80;;;8.50;99.90;;;;;;7285789;32;20231;-56
2023/03/26 09:40:38;;;;;;;7.72;1.67;;;8.30;99.90;;;;;;7282103;32;20177;-57
2023/03/26 09:44:58;;;;;;;5.10;1.77;;;8.20;99.90;;;;;;7280710;32;20136;-56
2023/03/26 09:49:12;;;;;;;10.35;1.58;;;8.30;99.90;;;;;;7276381;32;20112;-57
2023/03/26 09:53:32;;;;;;;8.30;1.62;;;8.30;99.90;;;;;;7282399;32;20296;-57
2023/03/26 09:58:03;;;;;;;4.95;1.20;;;8.30;99.90;;;;;;7282278;32;20158;-56
2023/03/26 10:02:22;;;;;;;4.07;1.40;;;8.30;99.90;;;;;;7267939;32;20754;-55
2023/03/26 10:07:07;;;;;;;4.87;1.00;;;8.20;99.90;;;;;;7282599;32;20942;-55
2023/03/26 10:11:12;;;;;;;3.45;0.60;;;8.10;99.90;;;;;;7281725;32;20147;-56
2023/03/26 10:15:32;;;;;;;3.75;0.77;;;8.00;99.90;;;;;;7276671;32;20522;-55
2023/03/26 10:19:58;;;;;;;3.25;0.40;;;7.90;99.90;;;;;;7280024;32;20619;-57
2023/03/26 10:24:29;;;;;;;1.80;0.45;;;7.80;99.90;;;;;;7269529;32;20133;-57
2023/03/26 10:28:46;;;;;;;2.17;0.57;;;7.60;99.90;;;;;;7273939;32;20202;-56
2023/03/26 10:33:04;;;;;;;3.65;1.12;;;7.70;99.90;;;;;;7278757;32;20188;-55
2023/03/26 10:37:37;;;;;;;1.87;0.98;;;7.80;99.90;;;;;;7280951;32;20186;-56
2023/03/26 10:42:13;;;;;;;4.15;1.37;;;7.80;99.90;;;;;;7280471;32;20114;-56
2023/03/26 10:46:30;;;;;;;2.85;0.90;;;7.90;99.90;;;;;;7279361;32;20262;-57
2023/03/26 10:51:06;;;;;;;2.47;0.93;;;7.80;99.90;;;;;;7281921;32;20107;-56
2023/03/26 10:55:17;;;;;;;6.25;1.05;;;7.80;99.90;;;;;;7282262;32;20151;-57
2023/03/26 10:59:20;;;;;;;6.60;0.93;;;7.70;99.90;;;;;;7282403;32;20108;-57
2023/03/26 11:03:51;;;;;;;1.52;0.85;;;7.70;99.90;;;;;;7274449;32;20136;-57
2023/03/26 11:08:38;;;;;;;4.87;0.85;;;7.80;99.90;;;;;;7278223;32;20625;-57
2023/03/26 11:13:04;;;;;;;3.15;0.95;;;7.70;99.90;;;;;;7245203;32;20196;-56
2023/03/26 11:17:14;;;;;;;2.22;0.70;;;7.80;99.90;;;;;;7277250;32;20643;-56
2023/03/26 11:21:51;;;;;;;3.60;1.02;;;7.70;99.90;;;;;;7276848;32;20111;-56
2023/03/26 11:26:11;;;;;;;3.53;0.70;;;7.70;99.90;;;;;;7275075;32;20124;-57
2023/03/26 11:30:35;;;;;;;5.60;1.30;;;7.80;99.90;;;;;;7276355;32;20126;-57
2023/03/26 11:34:57;;;;;;;3.80;0.85;;;7.90;99.90;;;;;;7274261;32;20196;-55
2023/03/26 11:39:03;;;;;;;1.62;0.88;;;7.80;99.90;;;;;;7274375;32;20151;-56
2023/03/26 11:43:07;;;;;;;3.90;0.95;;;7.80;99.90;;;;;;7276470;32;20298;-57
2023/03/26 11:47:14;;;;;;;2.25;0.65;;;7.90;99.90;;;;;;7263234;32;20198;-56
2023/03/26 11:51:27;;;;;;;5.37;0.93;;;8.00;99.90;;;;;;7273696;32;20618;-61
2023/03/26 11:55:30;;;;;;;2.10;0.90;;;8.20;99.90;;;;;;7275607;32;20671;-56
2023/03/26 11:59:35;;;;;;;1.77;0.60;;;8.20;99.90;;;;;;7265081;32;20103;-56
2023/03/26 12:04:25;;;;;;;1.27;0.57;;;8.20;99.90;;;;;;7275428;32;20177;-56
2023/03/26 12:08:36;;;;;;;2.03;0.50;;;8.10;99.90;;;;;;7271240;32;20175;-55
2023/03/26 12:12:40;;;;;;;1.62;0.57;;;8.30;99.90;;;;;;7278671;32;20183;-56
2023/03/26 12:17:07;;;;;;;1.33;0.52;;;8.40;99.90;;;;;;7279608;32;20100;-56
2023/03/26 12:21:11;;;;;;;1.10;0.47;;;8.50;99.90;;;;;;7280661;32;20195;-56
2023/03/26 12:25:21;;;;;;;1.80;1.12;;;8.40;99.90;;;;;;7280827;32;20104;-56
2023/03/26 12:29:22;;;;;;;2.30;1.00;;;8.50;99.90;;;;;;7288506;32;20521;-56
2023/03/26 12:33:27;;;;;;;2.95;0.70;;;8.30;99.90;;;;;;7280194;32;20746;-56
2023/03/26 12:37:40;;;;;;;1.50;0.70;;;8.20;99.90;;;;;;7277784;32;20092;-55
2023/03/26 12:41:42;;;;;;;1.17;0.50;;;8.20;99.90;;;;;;7275383;32;20173;-59
2023/03/26 12:46:23;;;;;;;3.67;0.47;;;8.20;99.90;;;;;;7274387;32;20100;-55
2023/03/26 12:51:06;;;;;;;1.23;0.50;;;8.20;99.90;;;;;;7279728;32;20698;-55
2023/03/26 12:55:29;;;;;;;1.17;0.35;;;8.40;99.90;;;;;;7278309;32;20115;-54
2023/03/26 13:00:10;;;;;;;1.17;0.47;;;8.50;99.90;;;;;;7276000;32;20434;-55
2023/03/26 13:04:26;;;;;;;1.10;0.52;;;8.60;99.90;;;;;;7275152;32;20505;-55
2023/03/26 13:08:46;;;;;;;0.50;0.30;;;8.70;99.90;;;;;;7277573;32;20800;-54
2023/03/26 13:13:21;;;;;;;2.05;0.50;;;8.80;99.90;;;;;;7277919;32;20219;-54
2023/03/26 13:17:50;;;;;;;6.05;2.15;;;9.40;99.90;;;;;;7278107;32;20879;-56
2023/03/26 13:21:55;;;;;;;11.05;7.62;;;9.50;99.90;;;;;;7278145;32;20183;-55
2023/03/26 13:26:22;;;;;;;2.53;1.70;;;9.80;99.90;;;;;;7272186;32;20747;-57
2023/03/26 13:30:49;;;;;;;2.00;0.90;;;10.20;99.90;;;;;;7281189;32;20893;-57
2023/03/26 13:35:23;;;;;;;2.80;1.95;;;10.50;99.90;;;;;;7272770;32;20104;-57
2023/03/26 13:39:49;;;;;;;1.00;0.52;;;11.10;99.90;;;;;;7254004;32;20128;-56
2023/03/26 13:44:18;;;;;;;1.85;0.32;;;10.90;99.90;;;;;;7275590;32;20223;-55
2023/03/26 13:48:27;;;;;;;1.33;0.40;;;10.80;99.90;;;;;;7272883;32;20529;-56
2023/03/26 13:52:48;;;;;;;0.60;0.30;;;10.70;99.90;;;;;;7273982;32;20703;-55
2023/03/26 13:57:04;;;;;;;2.37;1.02;;;10.60;99.90;;;;;;7278518;32;20187;-55
2023/03/26 14:01:18;;;;;;;1.90;0.73;;;10.50;99.90;;;;;;7279576;32;20260;-56
2023/03/26 14:05:41;;;;;;;1.42;0.90;;;10.20;99.90;;;;;;7278875;32;20305;-55
2023/03/26 14:09:52;;;;;;;2.95;0.85;;;10.30;99.90;;;;;;7277671;32;20479;-55
2023/03/26 14:14:07;;;;;;;0.43;0.32;;;10.40;99.90;;;;;;7279866;32;20650;-56
2023/03/26 14:18:11;;;;;;;1.65;0.20;;;10.10;99.90;;;;;;7276749;32;20151;-56
2023/03/26 14:22:29;;;;;;;0.40;0.30;;;10.10;99.90;;;;;;7281189;32;20186;-56
2023/03/26 14:26:45;;;;;;;2.20;0.30;;;10.00;99.90;;;;;;7277319;32;20165;-56
2023/03/26 14:30:55;;;;;;;1.15;0.37;;;9.90;99.90;;;;;;7282006;32;20141;-55
2023/03/26 14:35:24;;;;;;;1.95;0.22;;;9.80;99.90;;;;;;7278897;32;20319;-55
2023/03/26 14:39:45;;;;;;;2.12;0.52;;;9.80;99.90;;;;;;7277249;32;20427;-55
2023/03/26 14:44:08;;;;;;;0.68;0.40;;;9.40;99.90;;;;;;7276459;32;20125;-56
2023/03/26 14:48:35;;;;;;;1.15;0.62;;;9.50;99.90;;;;;;7271664;32;20135;-55
2023/03/26 14:52:46;;;;;;;0.70;0.53;;;9.70;99.90;;;;;;7279524;32;20279;-55
2023/03/26 14:57:43;;;;;;;2.58;0.80;;;9.70;99.90;;;;;;7281357;32;20198;-56
2023/03/26 15:01:46;;;;;;;0.80;0.70;;;9.50;99.90;;;;;;7248879;32;20176;-55
2023/03/26 15:06:08;;;;;;;0.80;0.60;;;9.70;99.90;;;;;;7276175;32;20249;-55
2023/03/26 15:10:21;;;;;;;1.25;0.60;;;9.60;99.90;;;;;;7277501;32;20207;-54
2023/03/26 15:14:29;;;;;;;1.23;0.60;;;9.40;99.90;;;;;;7278110;32;20695;-56
2023/03/26 15:18:49;;;;;;;2.00;0.95;;;9.40;99.90;;;;;;7279723;32;20133;-55
2023/03/26 15:23:15;;;;;;;2.17;1.00;;;9.40;99.90;;;;;;7283526;32;20195;-55
2023/03/26 15:28:02;;;;;;;2.37;1.30;;;9.30;99.90;;;;;;7275091;32;20203;-56
2023/03/26 15:32:28;;;;;;;2.45;1.25;;;9.30;99.90;;;;;;7260954;32;20595;-55
2023/03/26 15:36:49;;;;;;;2.83;1.37;;;9.00;99.90;;;;;;7277074;32;20092;-56
2023/03/26 15:41:16;;;;;;;3.08;1.12;;;8.80;99.90;;;;;;7277388;32;20112;-55
2023/03/26 15:45:48;;;;;;;3.58;1.27;;;8.60;99.90;;;;;;7274792;32;20322;-56
2023/03/26 15:50:26;;;;;;;3.55;1.67;;;8.50;99.90;;;;;;7284753;32;20226;-56
2023/03/26 15:54:31;;;;;;;;;;;8.30;99.90;;;;;;7255526;32;20120;-56
2023/03/26 15:59:05;;;;;;;4.47;1.98;;;8.20;99.90;;;;;;7278555;32;20566;-55
2023/03/26 16:03:10;;;;;;;3.72;2.08;;;8.20;99.90;;;;;;7278936;32;20180;-56
2023/03/26 16:07:27;;;;;;;3.90;1.73;;;8.30;99.90;;;;;;7281584;32;20135;-55
2023/03/26 16:11:56;;;;;;;4.05;2.17;;;8.40;99.90;;;;;;7284660;32;20103;-55
2023/03/26 16:16:05;;;;;;;5.03;1.70;;;8.30;99.90;;;;;;7285146;32;20598;-56
2023/03/26 16:20:31;;;;;;;3.97;1.83;;;8.30;99.90;;;;;;7285705;32;20100;-55
2023/03/26 16:24:48;;;;;;;5.10;1.70;;;8.10;99.90;;;;;;7280945;32;20100;-56
2023/03/26 16:28:51;;;;;;;4.20;2.10;;;8.00;99.90;;;;;;7286478;32;20199;-56
2023/03/26 16:32:57;;;;;;;6.15;2.80;;;7.90;99.90;;;;;;7286766;32;20127;-56
2023/03/26 16:36:59;;;;;;;5.78;2.65;;;7.90;99.90;;;;;;7290793;32;20753;-56
2023/03/26 16:41:18;;;;;;;9.32;4.20;;;7.80;99.90;;;;;;7281224;32;20144;-56
2023/03/26 16:45:35;;;;;;;16.27;6.60;;;7.80;99.90;;;;;;7283337;32;20245;-56
2023/03/26 16:49:52;;;;;;;21.12;8.20;;;7.60;99.90;;;;;;7283074;32;20149;-56
2023/03/26 16:54:43;;;;;;;19.25;8.45;;;7.50;99.90;;;;;;7287986;32;21065;-57
2023/03/26 16:59:19;;;;;;;23.75;8.00;;;7.40;99.90;;;;;;7273660;32;20207;-56
2023/03/26 17:03:34;;;;;;;23.75;8.25;;;7.40;99.90;;;;;;7251894;32;20108;-56
2023/03/26 17:07:51;;;;;;;19.95;7.40;;;7.40;99.90;;;;;;7277903;32;20234;-56
2023/03/26 17:12:04;;;;;;;26.62;8.25;;;7.30;99.90;;;;;;7285964;32;20178;-56
2023/03/26 17:16:35;;;;;;;22.10;8.75;;;7.20;99.90;;;;;;7283346;32;20131;-56
2023/03/26 17:20:58;;;;;;;24.83;6.32;;;7.20;99.90;;;;;;7274860;32;20624;-56
2023/03/26 17:25:37;;;;;;;21.58;6.28;;;7.20;99.90;;;;;;7265565;32;20111;-56
2023/03/26 17:29:48;;;;;;;25.77;5.45;;;7.10;99.90;;;;;;7280500;32;20245;-56
2023/03/26 17:33:50;;;;;;;19.80;4.90;;;7.20;99.90;;;;;;7281701;32;20879;-56
2023/03/26 17:37:52;;;;;;;21.45;4.97;;;7.10;99.90;;;;;;7285749;32;20793;-56
2023/03/26 17:42:17;;;;;;;18.95;5.10;;;7.00;99.90;;;;;;7288504;32;20120;-56
2023/03/26 17:46:39;;;;;;;16.42;5.00;;;7.00;99.90;;;;;;7286048;32;20228;-56
2023/03/26 17:50:52;;;;;;;26.90;5.70;;;7.10;99.90;;;;;;7292179;32;20680;-56
2023/03/26 17:54:55;;;;;;;20.62;5.45;;;7.10;99.90;;;;;;7285147;32;20108;-56
2023/03/26 17:59:07;;;;;;;20.90;4.82;;;7.10;99.90;;;;;;7292878;32;20277;-57
2023/03/26 18:03:20;;;;;;;15.30;4.25;;;7.20;99.90;;;;;;7286354;32;20153;-57
2023/03/26 18:07:46;;;;;;;25.27;5.37;;;7.10;99.90;;;;;;7277480;32;20576;-56
2023/03/26 18:12:00;;;;;;;19.50;5.15;;;7.10;99.90;;;;;;7284785;32;20108;-56
2023/03/26 18:16:12;;;;;;;15.32;4.78;;;7.10;99.90;;;;;;7273641;32;20580;-55
2023/03/26 18:20:22;;;;;;;15.15;4.95;;;7.00;99.90;;;;;;7277343;32;20221;-56
2023/03/26 18:24:28;;;;;;;13.68;4.00;;;7.10;99.90;;;;;;7281192;32;20150;-56
2023/03/26 18:28:37;;;;;;;15.53;4.07;;;7.10;99.90;;;;;;7279431;32;20103;-55
2023/03/26 18:32:51;;;;;;;13.65;2.97;;;6.90;99.90;;;;;;7282440;32;20128;-55
2023/03/26 18:37:13;;;;;;;11.27;3.08;;;6.80;99.90;;;;;;7279147;32;20127;-56
2023/03/26 18:41:26;;;;;;;14.27;3.22;;;6.70;99.90;;;;;;7277949;32;20129;-56
2023/03/26 18:45:33;;;;;;;14.35;3.17;;;6.70;99.90;;;;;;7282586;32;20821;-56
2023/03/26 18:49:35;;;;;;;19.70;3.80;;;6.60;99.90;;;;;;7276436;32;20120;-56
2023/03/26 18:53:58;;;;;;;11.27;2.67;;;6.50;99.90;;;;;;7277038;32;20125;-56
2023/03/26 18:58:21;;;;;;;14.13;3.30;;;6.50;99.90;;;;;;7284079;32;20128;-56
2023/03/26 19:02:23;;;;;;;12.02;2.17;;;6.50;99.90;;;;;;7280345;32;20112;-56
2023/03/26 19:06:27;;;;;;;13.80;2.35;;;6.40;99.90;;;;;;7278505;32;20284;-56
2023/03/26 19:10:30;;;;;;;16.40;2.40;;;6.30;99.90;;;;;;7280321;32;20130;-56
2023/03/26 19:14:35;;;;;;;16.60;2.47;;;6.30;99.90;;;;;;7281047;32;20108;-56
2023/03/26 19:18:40;;;;;;;10.43;2.45;;;6.30;99.90;;;;;;7276993;32;20135;-56
2023/03/26 19:22:45;;;;;;;;;;;6.40;99.90;;;;;;7279269;32;20183;-56
2023/03/26 19:26:47;;;;;;;15.07;2.58;;;6.30;99.90;;;;;;7280051;32;20042;-56
2023/03/26 19:30:56;;;;;;;14.00;2.35;;;6.20;99.90;;;;;;7277279;32;20135;-56
2023/03/26 19:35:00;;;;;;;16.23;2.17;;;6.30;99.90;;;;;;7274317;32;20203;-56
2023/03/26 19:39:11;;;;;;;9.50;1.80;;;6.30;99.90;;;;;;7280382;32;20285;-55
2023/03/26 19:43:14;;;;;;;13.60;2.45;;;6.30;99.90;;;;;;7278545;32;20103;-55
2023/03/26 19:47:36;;;;;;;15.48;3.03;;;6.30;99.90;;;;;;7273460;32;20211;-56
2023/03/26 19:52:13;;;;;;;8.80;1.90;;;6.20;99.90;;;;;;7275291;32;20770;-56
2023/03/26 19:56:17;;;;;;;10.88;1.90;;;6.00;99.90;;;;;;7279013;32;20131;-56
2023/03/26 20:00:19;;;;;;;10.35;2.08;;;6.00;99.90;;;;;;7275966;32;20126;-54
2023/03/26 20:04:21;;;;;;;13.25;1.87;;;6.10;99.90;;;;;;7280309;32;20555;-54
2023/03/26 20:08:25;;;;;;;13.55;1.77;;;6.00;99.90;;;;;;7275290;32;20107;-54
2023/03/26 20:12:27;;;;;;;14.70;1.87;;;5.90;99.90;;;;;;7274484;32;20172;-54
2023/03/26 20:16:32;;;;;;;10.60;2.15;;;6.10;99.90;;;;;;7280415;32;20135;-55
2023/03/26 20:20:35;;;;;;;14.77;2.15;;;6.00;99.90;;;;;;7273326;32;20581;-55
2023/03/26 20:24:36;;;;;;;8.77;1.52;;;5.90;99.90;;;;;;7278502;32;20116;-56
2023/03/26 20:28:39;;;;;;;11.10;2.22;;;5.90;99.90;;;;;;7275927;32;20130;-56
2023/03/26 20:32:49;;;;;;;11.75;1.58;;;5.90;99.90;;;;;;7278009;32;20137;-55
2023/03/26 20:37:11;;;;;;;11.00;1.70;;;5.80;99.90;;;;;;7273223;32;20171;-55
2023/03/26 20:41:16;;;;;;;11.40;1.40;;;5.70;99.90;;;;;;7279292;32;20593;-55
2023/03/26 20:45:22;;;;;;;12.63;1.60;;;5.70;99.90;;;;;;7274540;32;20116;-55
2023/03/26 20:49:24;;;;;;;9.25;1.35;;;5.60;99.90;;;;;;7273081;32;20151;-55
2023/03/26 20:53:26;;;;;;;14.45;1.80;;;5.60;99.90;;;;;;7273226;32;20230;-55
2023/03/26 20:57:28;;;;;;;16.48;2.28;;;5.50;99.90;;;;;;7275098;32;20302;-55
2023/03/26 21:01:30;;;;;;;13.50;1.95;;;5.40;99.90;;;;;;7269310;32;20132;-55
2023/03/26 21:05:33;;;;;;;10.95;1.95;;;5.40;99.90;;;;;;7277006;32;20159;-55
2023/03/26 21:09:35;;;;;;;9.00;1.73;;;5.30;99.90;;;;;;7271362;32;20143;-56
2023/03/26 21:13:56;;;;;;;16.50;2.33;;;5.40;99.90;;;;;;7276521;32;20215;-54
2023/03/26 21:17:58;;;;;;;10.90;1.90;;;5.30;99.90;;;;;;7279100;32;20158;-55
2023/03/26 21:22:17;;;;;;;8.15;1.48;;;5.30;99.90;;;;;;7275415;32;20309;-54
2023/03/26 21:26:38;;;;;;;12.82;1.73;;;5.20;99.90;;;;;;7271390;32;20135;-54
2023/03/26 21:30:42;;;;;;;11.60;1.60;;;5.10;99.90;;;;;;7282037;32;20476;-56
2023/03/26 21:34:45;;;;;;;9.48;1.37;;;5.20;99.90;;;;;;7273174;32;20551;-55
2023/03/26 21:38:58;;;;;;;9.25;1.50;;;5.10;99.90;;;;;;7275578;32;20329;-53
2023/03/26 21:43:00;;;;;;;12.90;2.05;;;4.90;99.90;;;;;;7275053;32;20195;-54
2023/03/26 21:47:03;;;;;;;19.83;2.30;;;4.90;99.90;;;;;;7274281;32;20107;-54
2023/03/26 21:51:05;;;;;;;9.40;1.62;;;4.90;99.90;;;;;;7276974;32;20439;-54
2023/03/26 21:55:09;;;;;;;19.48;1.90;;;4.80;99.90;;;;;;7281488;32;21342;-54
2023/03/26 21:59:16;;;;;;;11.82;1.25;;;4.60;99.90;;;;;;7283213;32;20112;-55